sensor_id;sensor_type;location;lat;lon;timestamp;pressure;altitude;pressure_sealevel;temperature;humidity
79534;BME280;68982;52.160;6.736;2023-11-19T00:00:06;100493.56;;;9.87;100.00
79534;BME280;68982;52.160;6.736;2023-11-19T00:02:36;100486.13;;;9.89;100.00
79534;BME280;68982;52.160;6.736;2023-11-19T00:05:01;100490.56;;;9.96;100.00
79534;BME280;68982;52.160;6.736;2023-11-19T00:07:27;100488.31;;;10.00;100.00
79534;BME280;68982;52.160;6.736;2023-11-19T00:09:52;100489.00;;;10.09;100.00
79534;BME280;68982;52.160;6.736;2023-11-19T00:12:17;100478.00;;;10.04;100.00
79534;BME280;68982;52.160;6.736;2023-11-19T00:14:43;100487.16;;;10.09;100.00
79534;BME280;68982;52.160;6.736;2023-11-19T00:17:09;100465.28;;;10.19;100.00
79534;BME280;68982;52.160;6.736;2023-11-19T00:19:34;100472.72;;;10.17;100.00
79534;BME280;68982;52.160;6.736;2023-11-19T00:22:00;100467.97;;;10.19;100.00
79534;BME280;68982;52.160;6.736;2023-11-19T00:24:28;100463.84;;;10.23;100.00
79534;BME280;68982;52.160;6.736;2023-11-19T00:26:53;100453.25;;;10.22;100.00
79534;BME280;68982;52.160;6.736;2023-11-19T00:29:18;100459.94;;;10.26;100.00
79534;BME280;68982;52.160;6.736;2023-11-19T00:31:45;100461.03;;;10.31;100.00
79534;BME280;68982;52.160;6.736;2023-11-19T00:34:10;100454.63;;;10.32;100.00
79534;BME280;68982;52.160;6.736;2023-11-19T00:36:36;100456.50;;;10.32;100.00
79534;BME280;68982;52.160;6.736;2023-11-19T00:39:01;100462.31;;;10.35;100.00
79534;BME280;68982;52.160;6.736;2023-11-19T00:41:27;100455.50;;;10.40;100.00
79534;BME280;68982;52.160;6.736;2023-11-19T00:43:52;100464.47;;;10.47;100.00
79534;BME280;68982;52.160;6.736;2023-11-19T00:46:17;100458.25;;;10.46;100.00
79534;BME280;68982;52.160;6.736;2023-11-19T00:48:43;100462.81;;;10.46;100.00
79534;BME280;68982;52.160;6.736;2023-11-19T00:51:08;100463.44;;;10.48;100.00
79534;BME280;68982;52.160;6.736;2023-11-19T00:53:34;100449.78;;;10.49;100.00
79534;BME280;68982;52.160;6.736;2023-11-19T00:55:59;100445.25;;;10.56;100.00
79534;BME280;68982;52.160;6.736;2023-11-19T00:58:25;100434.03;;;10.53;100.00
79534;BME280;68982;52.160;6.736;2023-11-19T01:00:50;100439.88;;;10.56;100.00
79534;BME280;68982;52.160;6.736;2023-11-19T01:03:16;100441.28;;;10.52;100.00
79534;BME280;68982;52.160;6.736;2023-11-19T01:05:41;100433.25;;;10.59;100.00
79534;BME280;68982;52.160;6.736;2023-11-19T01:08:07;100420.41;;;10.61;100.00
79534;BME280;68982;52.160;6.736;2023-11-19T01:10:33;100429.94;;;10.64;100.00
79534;BME280;68982;52.160;6.736;2023-11-19T01:12:59;100400.72;;;10.67;100.00
79534;BME280;68982;52.160;6.736;2023-11-19T01:15:24;100393.25;;;10.69;100.00
79534;BME280;68982;52.160;6.736;2023-11-19T01:17:50;100403.19;;;10.69;100.00
79534;BME280;68982;52.160;6.736;2023-11-19T01:20:15;100390.53;;;10.69;100.00
79534;BME280;68982;52.160;6.736;2023-11-19T01:22:40;100394.69;;;10.65;100.00
79534;BME280;68982;52.160;6.736;2023-11-19T01:25:06;100400.09;;;10.65;100.00
79534;BME280;68982;52.160;6.736;2023-11-19T01:27:32;100398.03;;;10.67;100.00
79534;BME280;68982;52.160;6.736;2023-11-19T01:29:59;100384.97;;;10.71;100.00
79534;BME280;68982;52.160;6.736;2023-11-19T01:32:25;100370.03;;;10.68;100.00
79534;BME280;68982;52.160;6.736;2023-11-19T01:34:50;100382.72;;;10.74;100.00
79534;BME280;68982;52.160;6.736;2023-11-19T01:37:16;100388.28;;;10.73;100.00
79534;BME280;68982;52.160;6.736;2023-11-19T01:39:44;100397.03;;;10.75;100.00
79534;BME280;68982;52.160;6.736;2023-11-19T01:42:10;100403.06;;;10.84;100.00
79534;BME280;68982;52.160;6.736;2023-11-19T01:44:37;100393.94;;;10.85;100.00
79534;BME280;68982;52.160;6.736;2023-11-19T01:47:02;100391.69;;;10.88;100.00
79534;BME280;68982;52.160;6.736;2023-11-19T01:49:30;100406.03;;;10.95;100.00
79534;BME280;68982;52.160;6.736;2023-11-19T01:51:57;100393.78;;;10.93;100.00
79534;BME280;68982;52.160;6.736;2023-11-19T01:54:24;100394.00;;;10.98;100.00
79534;BME280;68982;52.160;6.736;2023-11-19T01:56:49;100401.25;;;10.97;100.00
79534;BME280;68982;52.160;6.736;2023-11-19T01:59:15;100399.41;;;11.05;100.00
79534;BME280;68982;52.160;6.736;2023-11-19T02:01:41;100396.72;;;11.05;100.00
79534;BME280;68982;52.160;6.736;2023-11-19T02:04:08;100390.31;;;11.12;100.00
79534;BME280;68982;52.160;6.736;2023-11-19T02:06:34;100390.31;;;11.12;100.00
79534;BME280;68982;52.160;6.736;2023-11-19T02:09:01;100385.31;;;11.09;100.00
79534;BME280;68982;52.160;6.736;2023-11-19T02:11:33;100369.34;;;11.08;100.00
79534;BME280;68982;52.160;6.736;2023-11-19T02:13:58;100365.41;;;11.10;100.00
79534;BME280;68982;52.160;6.736;2023-11-19T02:16:24;100359.19;;;11.10;100.00
79534;BME280;68982;52.160;6.736;2023-11-19T02:18:49;100366.84;;;11.06;100.00
79534;BME280;68982;52.160;6.736;2023-11-19T02:21:14;100364.38;;;11.18;100.00
79534;BME280;68982;52.160;6.736;2023-11-19T02:23:40;100375.16;;;11.11;100.00
79534;BME280;68982;52.160;6.736;2023-11-19T02:28:48;100367.28;;;11.16;100.00
79534;BME280;68982;52.160;6.736;2023-11-19T02:31:13;100354.63;;;11.17;100.00
79534;BME280;68982;52.160;6.736;2023-11-19T02:33:39;100354.41;;;11.12;100.00
79534;BME280;68982;52.160;6.736;2023-11-19T02:36:06;100348.78;;;11.13;100.00
79534;BME280;68982;52.160;6.736;2023-11-19T02:38:35;100352.94;;;11.09;100.00
79534;BME280;68982;52.160;6.736;2023-11-19T02:41:03;100341.28;;;11.02;100.00
79534;BME280;68982;52.160;6.736;2023-11-19T02:43:34;100350.03;;;11.11;100.00
79534;BME280;68982;52.160;6.736;2023-11-19T02:46:02;100351.91;;;11.10;100.00
79534;BME280;68982;52.160;6.736;2023-11-19T02:48:32;100351.28;;;11.08;100.00
79534;BME280;68982;52.160;6.736;2023-11-19T02:50:57;100333.00;;;10.97;100.00
79534;BME280;68982;52.160;6.736;2023-11-19T02:53:23;100349.84;;;11.12;100.00
79534;BME280;68982;52.160;6.736;2023-11-19T02:55:50;100350.22;;;11.09;100.00
79534;BME280;68982;52.160;6.736;2023-11-19T02:58:16;100354.19;;;11.07;100.00
79534;BME280;68982;52.160;6.736;2023-11-19T03:00:49;100361.03;;;11.16;100.00
79534;BME280;68982;52.160;6.736;2023-11-19T03:03:23;100371.84;;;11.16;100.00
79534;BME280;68982;52.160;6.736;2023-11-19T03:05:53;100373.31;;;11.12;100.00
79534;BME280;68982;52.160;6.736;2023-11-19T03:08:19;100372.88;;;11.15;100.00
79534;BME280;68982;52.160;6.736;2023-11-19T03:10:44;100361.28;;;11.14;100.00
79534;BME280;68982;52.160;6.736;2023-11-19T03:13:11;100360.84;;;11.11;100.00
79534;BME280;68982;52.160;6.736;2023-11-19T03:15:40;100362.75;;;11.24;100.00
79534;BME280;68982;52.160;6.736;2023-11-19T03:18:07;100355.47;;;11.24;100.00
79534;BME280;68982;52.160;6.736;2023-11-19T03:20:32;100367.50;;;11.22;100.00
79534;BME280;68982;52.160;6.736;2023-11-19T03:22:57;100357.16;;;11.25;100.00
79534;BME280;68982;52.160;6.736;2023-11-19T03:25:26;100359.22;;;11.23;100.00
79534;BME280;68982;52.160;6.736;2023-11-19T03:28:02;100368.75;;;11.26;100.00
79534;BME280;68982;52.160;6.736;2023-11-19T03:30:28;100359.44;;;11.28;100.00
79534;BME280;68982;52.160;6.736;2023-11-19T03:32:57;100365.22;;;11.18;100.00
79534;BME280;68982;52.160;6.736;2023-11-19T03:35:23;100367.06;;;11.18;100.00
79534;BME280;68982;52.160;6.736;2023-11-19T03:37:48;100370.81;;;11.10;100.00
79534;BME280;68982;52.160;6.736;2023-11-19T03:40:14;100359.59;;;11.13;100.00
79534;BME280;68982;52.160;6.736;2023-11-19T03:42:40;100357.97;;;11.19;100.00
79534;BME280;68982;52.160;6.736;2023-11-19T03:45:06;100360.00;;;11.10;100.00
79534;BME280;68982;52.160;6.736;2023-11-19T03:47:34;100363.72;;;11.03;100.00
79534;BME280;68982;52.160;6.736;2023-11-19T03:49:59;100368.72;;;11.06;100.00
79534;BME280;68982;52.160;6.736;2023-11-19T03:52:25;100363.50;;;11.04;100.00
79534;BME280;68982;52.160;6.736;2023-11-19T03:54:52;100374.91;;;10.99;100.00
79534;BME280;68982;52.160;6.736;2023-11-19T03:57:18;100365.78;;;10.94;100.00
79534;BME280;68982;52.160;6.736;2023-11-19T03:59:43;100375.34;;;10.96;100.00
79534;BME280;68982;52.160;6.736;2023-11-19T04:02:09;100367.88;;;10.98;100.00
79534;BME280;68982;52.160;6.736;2023-11-19T04:04:35;100358.53;;;11.01;100.00
79534;BME280;68982;52.160;6.736;2023-11-19T04:07:01;100378.06;;;11.10;100.00
79534;BME280;68982;52.160;6.736;2023-11-19T04:09:28;100377.00;;;11.04;100.00
79534;BME280;68982;52.160;6.736;2023-11-19T04:11:54;100374.91;;;10.99;100.00
79534;BME280;68982;52.160;6.736;2023-11-19T04:14:19;100362.88;;;11.02;100.00
79534;BME280;68982;52.160;6.736;2023-11-19T04:16:45;100359.78;;;10.98;100.00
79534;BME280;68982;52.160;6.736;2023-11-19T04:19:11;100361.63;;;10.98;100.00
79534;BME280;68982;52.160;6.736;2023-11-19T04:21:36;100359.94;;;10.90;100.00
79534;BME280;68982;52.160;6.736;2023-11-19T04:24:02;100354.75;;;10.89;100.00
79534;BME280;68982;52.160;6.736;2023-11-19T04:26:27;100350.59;;;10.86;100.00
79534;BME280;68982;52.160;6.736;2023-11-19T04:28:53;100360.38;;;10.87;100.00
79534;BME280;68982;52.160;6.736;2023-11-19T04:31:18;100357.63;;;10.81;100.00
79534;BME280;68982;52.160;6.736;2023-11-19T04:33:43;100369.41;;;10.73;100.00
79534;BME280;68982;52.160;6.736;2023-11-19T04:36:10;100364.19;;;10.65;100.00
79534;BME280;68982;52.160;6.736;2023-11-19T04:38:35;100377.88;;;10.63;100.00
79534;BME280;68982;52.160;6.736;2023-11-19T04:41:00;100380.34;;;10.58;100.00
79534;BME280;68982;52.160;6.736;2023-11-19T04:43:26;100378.03;;;10.55;100.00
79534;BME280;68982;52.160;6.736;2023-11-19T04:45:51;100381.78;;;10.54;100.00
79534;BME280;68982;52.160;6.736;2023-11-19T04:48:17;100380.94;;;10.53;100.00
79534;BME280;68982;52.160;6.736;2023-11-19T04:50:42;100375.94;;;10.50;100.00
79534;BME280;68982;52.160;6.736;2023-11-19T04:53:07;100375.13;;;10.50;100.00
79534;BME280;68982;52.160;6.736;2023-11-19T04:55:32;100380.84;;;10.40;100.00
79534;BME280;68982;52.160;6.736;2023-11-19T04:57:58;100372.78;;;10.40;100.00
79534;BME280;68982;52.160;6.736;2023-11-19T05:00:23;100375.91;;;10.44;100.00
79534;BME280;68982;52.160;6.736;2023-11-19T05:02:48;100395.22;;;10.47;100.00
79534;BME280;68982;52.160;6.736;2023-11-19T05:05:15;100386.28;;;10.47;100.00
79534;BME280;68982;52.160;6.736;2023-11-19T05:07:41;100378.59;;;10.44;100.00
79534;BME280;68982;52.160;6.736;2023-11-19T05:10:06;100376.75;;;10.44;100.00
79534;BME280;68982;52.160;6.736;2023-11-19T05:12:32;100384.81;;;10.44;100.00
79534;BME280;68982;52.160;6.736;2023-11-19T05:14:57;100390.47;;;10.49;100.00
79534;BME280;68982;52.160;6.736;2023-11-19T05:17:23;100391.31;;;10.50;100.00
79534;BME280;68982;52.160;6.736;2023-11-19T05:19:48;100374.44;;;10.41;100.00
79534;BME280;68982;52.160;6.736;2023-11-19T05:22:14;100373.19;;;10.37;100.00
79534;BME280;68982;52.160;6.736;2023-11-19T05:24:39;100378.38;;;10.39;100.00
79534;BME280;68982;52.160;6.736;2023-11-19T05:27:06;100377.78;;;10.43;100.00
79534;BME280;68982;52.160;6.736;2023-11-19T05:29:32;100376.31;;;10.41;100.00
79534;BME280;68982;52.160;6.736;2023-11-19T05:31:58;100391.63;;;10.40;100.00
79534;BME280;68982;52.160;6.736;2023-11-19T05:34:23;100395.78;;;10.36;100.00
79534;BME280;68982;52.160;6.736;2023-11-19T05:36:49;100404.94;;;10.42;100.00
79534;BME280;68982;52.160;6.736;2023-11-19T05:39:16;100403.69;;;10.44;100.00
79534;BME280;68982;52.160;6.736;2023-11-19T05:41:41;100397.88;;;10.41;100.00
79534;BME280;68982;52.160;6.736;2023-11-19T05:44:06;100396.00;;;10.41;100.00
79534;BME280;68982;52.160;6.736;2023-11-19T05:46:32;100396.44;;;10.45;100.00
79534;BME280;68982;52.160;6.736;2023-11-19T05:48:57;100389.38;;;10.44;100.00
79534;BME280;68982;52.160;6.736;2023-11-19T05:51:23;100397.47;;;10.44;100.00
79534;BME280;68982;52.160;6.736;2023-11-19T05:53:49;100395.56;;;10.37;100.00
79534;BME280;68982;52.160;6.736;2023-11-19T05:56:15;100409.31;;;10.43;100.00
79534;BME280;68982;52.160;6.736;2023-11-19T05:58:46;100406.56;;;10.36;100.00
79534;BME280;68982;52.160;6.736;2023-11-19T06:01:14;100404.69;;;10.36;100.00
79534;BME280;68982;52.160;6.736;2023-11-19T06:03:39;100407.38;;;10.36;100.00
79534;BME280;68982;52.160;6.736;2023-11-19T06:06:05;100394.75;;;10.37;100.00
79534;BME280;68982;52.160;6.736;2023-11-19T06:08:31;100403.47;;;10.39;100.00
79534;BME280;68982;52.160;6.736;2023-11-19T06:10:56;100408.81;;;10.32;100.00
79534;BME280;68982;52.160;6.736;2023-11-19T06:13:22;100413.16;;;10.33;100.00
79534;BME280;68982;52.160;6.736;2023-11-19T06:15:47;100414.66;;;10.36;100.00
79534;BME280;68982;52.160;6.736;2023-11-19T06:18:12;100412.97;;;10.35;100.00
79534;BME280;68982;52.160;6.736;2023-11-19T06:20:40;100409.81;;;10.31;100.00
79534;BME280;68982;52.160;6.736;2023-11-19T06:23:05;100422.53;;;10.37;100.00
79534;BME280;68982;52.160;6.736;2023-11-19T06:25:31;100424.56;;;10.35;100.00
79534;BME280;68982;52.160;6.736;2023-11-19T06:27:57;100421.50;;;10.39;100.00
79534;BME280;68982;52.160;6.736;2023-11-19T06:30:23;100439.91;;;10.35;100.00
79534;BME280;68982;52.160;6.736;2023-11-19T06:32:48;100427.69;;;10.32;100.00
79534;BME280;68982;52.160;6.736;2023-11-19T06:35:14;100430.09;;;10.27;100.00
79534;BME280;68982;52.160;6.736;2023-11-19T06:37:40;100434.06;;;10.31;100.00
79534;BME280;68982;52.160;6.736;2023-11-19T06:40:06;100432.81;;;10.27;100.00
79534;BME280;68982;52.160;6.736;2023-11-19T06:42:34;100429.06;;;10.28;100.00
79534;BME280;68982;52.160;6.736;2023-11-19T06:44:59;100419.28;;;10.21;100.00
79534;BME280;68982;52.160;6.736;2023-11-19T06:47:26;100433.06;;;10.32;100.00
79534;BME280;68982;52.160;6.736;2023-11-19T06:49:53;100423.13;;;10.33;100.00
79534;BME280;68982;52.160;6.736;2023-11-19T06:52:18;100435.94;;;10.31;100.00
79534;BME280;68982;52.160;6.736;2023-11-19T06:54:44;100439.28;;;10.33;100.00
79534;BME280;68982;52.160;6.736;2023-11-19T06:57:10;100429.72;;;10.30;100.00
79534;BME280;68982;52.160;6.736;2023-11-19T06:59:36;100430.56;;;10.31;100.00
79534;BME280;68982;52.160;6.736;2023-11-19T07:02:02;100427.28;;;10.35;100.00
79534;BME280;68982;52.160;6.736;2023-11-19T07:04:27;100431.00;;;10.34;100.00
79534;BME280;68982;52.160;6.736;2023-11-19T07:06:53;100417.31;;;10.29;100.00
79534;BME280;68982;52.160;6.736;2023-11-19T07:09:18;100439.47;;;10.31;100.00
79534;BME280;68982;52.160;6.736;2023-11-19T07:11:44;100431.00;;;10.34;100.00
79534;BME280;68982;52.160;6.736;2023-11-19T07:14:11;100439.91;;;10.35;100.00
79534;BME280;68982;52.160;6.736;2023-11-19T07:16:37;100441.59;;;10.36;100.00
79534;BME280;68982;52.160;6.736;2023-11-19T07:19:04;100436.78;;;10.31;100.00
79534;BME280;68982;52.160;6.736;2023-11-19T07:21:30;100442.16;;;10.31;100.00
79534;BME280;68982;52.160;6.736;2023-11-19T07:23:56;100439.84;;;10.28;100.00
79534;BME280;68982;52.160;6.736;2023-11-19T07:26:22;100445.06;;;10.30;100.00
79534;BME280;68982;52.160;6.736;2023-11-19T07:28:48;100448.97;;;10.27;100.00
79534;BME280;68982;52.160;6.736;2023-11-19T07:31:13;100453.81;;;10.32;100.00
79534;BME280;68982;52.160;6.736;2023-11-19T07:33:42;100450.88;;;10.33;100.00
79534;BME280;68982;52.160;6.736;2023-11-19T07:36:10;100452.94;;;10.31;100.00
79534;BME280;68982;52.160;6.736;2023-11-19T07:38:36;100460.66;;;10.34;100.00
79534;BME280;68982;52.160;6.736;2023-11-19T07:41:02;100458.16;;;10.33;100.00
79534;BME280;68982;52.160;6.736;2023-11-19T07:43:27;100462.06;;;10.30;100.00
79534;BME280;68982;52.160;6.736;2023-11-19T07:45:53;100467.91;;;10.34;100.00
79534;BME280;68982;52.160;6.736;2023-11-19T07:48:18;100475.34;;;10.32;100.00
79534;BME280;68982;52.160;6.736;2023-11-19T07:50:48;100480.53;;;10.33;100.00
79534;BME280;68982;52.160;6.736;2023-11-19T07:53:16;100476.00;;;10.34;100.00
79534;BME280;68982;52.160;6.736;2023-11-19T07:55:41;100484.91;;;10.34;100.00
79534;BME280;68982;52.160;6.736;2023-11-19T07:58:06;100489.13;;;10.44;100.00
79534;BME280;68982;52.160;6.736;2023-11-19T08:00:32;100471.03;;;10.37;100.00
79534;BME280;68982;52.160;6.736;2023-11-19T08:02:57;100488.47;;;10.42;100.00
79534;BME280;68982;52.160;6.736;2023-11-19T08:05:22;100500.72;;;10.44;100.00
79534;BME280;68982;52.160;6.736;2023-11-19T08:07:50;100498.88;;;10.45;100.00
79534;BME280;68982;52.160;6.736;2023-11-19T08:10:15;100495.34;;;10.44;100.00
79534;BME280;68982;52.160;6.736;2023-11-19T08:12:40;100491.81;;;10.44;100.00
79534;BME280;68982;52.160;6.736;2023-11-19T08:15:06;100478.75;;;10.41;100.00
79534;BME280;68982;52.160;6.736;2023-11-19T08:17:32;100482.31;;;10.48;100.00
79534;BME280;68982;52.160;6.736;2023-11-19T08:19:57;100499.72;;;10.45;100.00
79534;BME280;68982;52.160;6.736;2023-11-19T08:22:25;100485.00;;;10.48;100.00
79534;BME280;68982;52.160;6.736;2023-11-19T08:24:50;100489.94;;;10.44;100.00
79534;BME280;68982;52.160;6.736;2023-11-19T08:27:15;100493.28;;;10.46;100.00
79534;BME280;68982;52.160;6.736;2023-11-19T08:29:41;100490.78;;;10.45;100.00
79534;BME280;68982;52.160;6.736;2023-11-19T08:32:06;100485.38;;;10.45;100.00
79534;BME280;68982;52.160;6.736;2023-11-19T08:34:32;100493.06;;;10.41;100.00
79534;BME280;68982;52.160;6.736;2023-11-19T08:36:57;100486.44;;;10.44;100.00
79534;BME280;68982;52.160;6.736;2023-11-19T08:39:23;100484.38;;;10.46;100.00
79534;BME280;68982;52.160;6.736;2023-11-19T08:41:48;100475.41;;;10.39;100.00
79534;BME280;68982;52.160;6.736;2023-11-19T08:44:14;100485.44;;;10.51;100.00
79534;BME280;68982;52.160;6.736;2023-11-19T08:46:45;100481.53;;;10.54;100.00
79534;BME280;68982;52.160;6.736;2023-11-19T08:49:11;100485.88;;;10.55;100.00
79534;BME280;68982;52.160;6.736;2023-11-19T08:51:36;100488.56;;;10.55;100.00
79534;BME280;68982;52.160;6.736;2023-11-19T08:54:01;100486.06;;;10.53;100.00
79534;BME280;68982;52.160;6.736;2023-11-19T08:56:26;100489.03;;;10.58;100.00
79534;BME280;68982;52.160;6.736;2023-11-19T08:58:57;100489.25;;;10.64;100.00
79534;BME280;68982;52.160;6.736;2023-11-19T09:01:22;100476.41;;;10.66;100.00
79534;BME280;68982;52.160;6.736;2023-11-19T09:03:47;100489.16;;;10.78;100.00
79534;BME280;68982;52.160;6.736;2023-11-19T09:06:13;100483.31;;;10.75;100.00
79534;BME280;68982;52.160;6.736;2023-11-19T09:08:38;100488.31;;;10.78;100.00
79534;BME280;68982;52.160;6.736;2023-11-19T09:11:06;100499.53;;;10.82;100.00
79534;BME280;68982;52.160;6.736;2023-11-19T09:13:32;100476.06;;;10.75;100.00
79534;BME280;68982;52.160;6.736;2023-11-19T09:15:58;100487.09;;;10.81;100.00
79534;BME280;68982;52.160;6.736;2023-11-19T09:18:28;100464.84;;;10.72;100.00
79534;BME280;68982;52.160;6.736;2023-11-19T09:20:53;100478.19;;;10.87;100.00
79534;BME280;68982;52.160;6.736;2023-11-19T09:23:19;100481.28;;;10.84;100.00
79534;BME280;68982;52.160;6.736;2023-11-19T09:25:45;100490.22;;;10.84;100.00
79534;BME280;68982;52.160;6.736;2023-11-19T09:28:10;100495.22;;;10.87;100.00
79534;BME280;68982;52.160;6.736;2023-11-19T09:30:35;100485.69;;;10.91;100.00
79534;BME280;68982;52.160;6.736;2023-11-19T09:33:01;100492.31;;;10.89;100.00
79534;BME280;68982;52.160;6.736;2023-11-19T09:35:26;100485.91;;;10.90;100.00
79534;BME280;68982;52.160;6.736;2023-11-19T09:37:51;100486.56;;;10.98;100.00
79534;BME280;68982;52.160;6.736;2023-11-19T09:40:18;100499.47;;;11.03;100.00
79534;BME280;68982;52.160;6.736;2023-11-19T09:42:44;100490.72;;;11.01;100.00
79534;BME280;68982;52.160;6.736;2023-11-19T09:45:13;100481.41;;;11.04;100.00
79534;BME280;68982;52.160;6.736;2023-11-19T09:47:42;100493.47;;;11.08;100.00
79534;BME280;68982;52.160;6.736;2023-11-19T09:50:08;100483.69;;;11.07;100.00
79534;BME280;68982;52.160;6.736;2023-11-19T09:52:34;100477.06;;;11.09;100.00
79534;BME280;68982;52.160;6.736;2023-11-19T09:55:00;100472.88;;;11.00;100.00
79534;BME280;68982;52.160;6.736;2023-11-19T09:57:26;100480.78;;;11.08;100.00
79534;BME280;68982;52.160;6.736;2023-11-19T09:59:53;100492.00;;;11.05;100.00
79534;BME280;68982;52.160;6.736;2023-11-19T10:02:19;100477.28;;;11.08;100.00
79534;BME280;68982;52.160;6.736;2023-11-19T10:04:46;100475.59;;;11.07;100.00
79534;BME280;68982;52.160;6.736;2023-11-19T10:07:12;100482.44;;;11.09;100.00
79534;BME280;68982;52.160;6.736;2023-11-19T10:09:38;100493.50;;;11.14;100.00
79534;BME280;68982;52.160;6.736;2023-11-19T10:12:03;100477.31;;;11.14;100.00
79534;BME280;68982;52.160;6.736;2023-11-19T10:14:30;100472.13;;;11.19;100.00
79534;BME280;68982;52.160;6.736;2023-11-19T10:16:56;100481.97;;;11.34;100.00
79534;BME280;68982;52.160;6.736;2023-11-19T10:19:22;100478.69;;;11.52;100.00
79534;BME280;68982;52.160;6.736;2023-11-19T10:21:48;100480.94;;;11.48;100.00
79534;BME280;68982;52.160;6.736;2023-11-19T10:24:13;100472.03;;;11.54;100.00
79534;BME280;68982;52.160;6.736;2023-11-19T10:26:40;100483.91;;;11.67;100.00
79534;BME280;68982;52.160;6.736;2023-11-19T10:29:05;100479.94;;;11.69;99.95
79534;BME280;68982;52.160;6.736;2023-11-19T10:31:31;100478.50;;;11.67;100.00
79534;BME280;68982;52.160;6.736;2023-11-19T10:33:56;100477.47;;;11.68;99.99
79534;BME280;68982;52.160;6.736;2023-11-19T10:36:22;100481.44;;;11.65;100.00
79534;BME280;68982;52.160;6.736;2023-11-19T10:38:56;100474.16;;;11.72;99.95
79534;BME280;68982;52.160;6.736;2023-11-19T10:41:29;100471.66;;;11.71;100.00
79534;BME280;68982;52.160;6.736;2023-11-19T10:43:54;100480.19;;;11.68;100.00
79534;BME280;68982;52.160;6.736;2023-11-19T10:46:19;100475.16;;;11.65;100.00
79534;BME280;68982;52.160;6.736;2023-11-19T10:48:48;100481.19;;;11.60;100.00
79534;BME280;68982;52.160;6.736;2023-11-19T10:51:19;100480.97;;;11.55;100.00
79534;BME280;68982;52.160;6.736;2023-11-19T10:53:49;100480.34;;;11.59;100.00
79534;BME280;68982;52.160;6.736;2023-11-19T10:56:16;100474.53;;;11.56;100.00
79534;BME280;68982;52.160;6.736;2023-11-19T10:58:44;100477.00;;;11.51;100.00
79534;BME280;68982;52.160;6.736;2023-11-19T11:01:19;100480.34;;;11.53;100.00
79534;BME280;68982;52.160;6.736;2023-11-19T11:03:47;100475.56;;;11.48;100.00
79534;BME280;68982;52.160;6.736;2023-11-19T11:06:17;100469.31;;;11.48;100.00
79534;BME280;68982;52.160;6.736;2023-11-19T11:08:44;100472.66;;;11.50;100.00
79534;BME280;68982;52.160;6.736;2023-11-19T11:11:13;100471.41;;;11.52;100.00
79534;BME280;68982;52.160;6.736;2023-11-19T11:13:42;100459.34;;;11.48;100.00
79534;BME280;68982;52.160;6.736;2023-11-19T11:16:08;100475.34;;;11.50;100.00
79534;BME280;68982;52.160;6.736;2023-11-19T11:18:33;100455.59;;;11.49;99.91
79534;BME280;68982;52.160;6.736;2023-11-19T11:21:03;100466.63;;;11.48;100.00
79534;BME280;68982;52.160;6.736;2023-11-19T11:26:35;100472.44;;;11.51;100.00
79534;BME280;68982;52.160;6.736;2023-11-19T11:29:10;100449.19;;;11.50;99.61
79534;BME280;68982;52.160;6.736;2023-11-19T11:32:01;100462.06;;;11.55;99.85
79534;BME280;68982;52.160;6.736;2023-11-19T11:40:05;100464.78;;;11.61;99.90
79534;BME280;68982;52.160;6.736;2023-11-19T11:42:35;100457.13;;;11.72;98.10
79534;BME280;68982;52.160;6.736;2023-11-19T11:45:08;100451.31;;;11.75;97.44
79534;BME280;68982;52.160;6.736;2023-11-19T11:50:13;100445.69;;;11.70;96.60
79534;BME280;68982;52.160;6.736;2023-11-19T11:55:36;100433.84;;;11.71;96.93
79534;BME280;68982;52.160;6.736;2023-11-19T11:58:02;100435.09;;;11.68;96.86
79534;BME280;68982;52.160;6.736;2023-11-19T12:00:37;100438.41;;;11.70;97.96
79534;BME280;68982;52.160;6.736;2023-11-19T12:03:04;100429.06;;;11.73;97.76
79534;BME280;68982;52.160;6.736;2023-11-19T12:05:30;100424.31;;;11.81;99.08
79534;BME280;68982;52.160;6.736;2023-11-19T12:08:03;100413.94;;;11.85;97.42
79534;BME280;68982;52.160;6.736;2023-11-19T12:10:31;100422.88;;;11.92;97.24
79534;BME280;68982;52.160;6.736;2023-11-19T12:13:00;100411.81;;;11.87;96.88
79534;BME280;68982;52.160;6.736;2023-11-19T12:15:27;100425.31;;;11.87;95.08
79534;BME280;68982;52.160;6.736;2023-11-19T12:17:53;100417.03;;;11.82;97.51
79534;BME280;68982;52.160;6.736;2023-11-19T12:20:23;100414.53;;;11.80;96.50
79534;BME280;68982;52.160;6.736;2023-11-19T12:22:50;100413.28;;;11.76;97.20
79534;BME280;68982;52.160;6.736;2023-11-19T12:25:16;100417.84;;;11.76;97.05
79534;BME280;68982;52.160;6.736;2023-11-19T12:27:47;100408.50;;;11.72;97.00
79534;BME280;68982;52.160;6.736;2023-11-19T12:30:17;100405.56;;;11.67;97.42
79534;BME280;68982;52.160;6.736;2023-11-19T12:32:45;100410.34;;;11.65;98.60
79534;BME280;68982;52.160;6.736;2023-11-19T12:35:11;100417.22;;;11.60;98.70
79534;BME280;68982;52.160;6.736;2023-11-19T12:37:44;100422.84;;;11.66;100.00
79534;BME280;68982;52.160;6.736;2023-11-19T12:40:21;100409.53;;;11.64;100.00
79534;BME280;68982;52.160;6.736;2023-11-19T12:42:48;100402.84;;;11.53;99.69
79534;BME280;68982;52.160;6.736;2023-11-19T12:45:14;100403.47;;;11.49;100.00
79534;BME280;68982;52.160;6.736;2023-11-19T12:47:39;100413.22;;;11.36;100.00
79534;BME280;68982;52.160;6.736;2023-11-19T12:50:09;100421.50;;;11.28;100.00
79534;BME280;68982;52.160;6.736;2023-11-19T12:52:38;100419.84;;;11.20;100.00